sensor_id;sensor_type;location;lat;lon;timestamp;P1;durP1;ratioP1;P2;durP2;ratioP2
9860;SDS011;4969;52.304;4.968;2023-06-14T00:00:01;7.88;;;3.20;;
9860;SDS011;4969;52.304;4.968;2023-06-14T00:02:29;4.25;;;3.03;;
9860;SDS011;4969;52.304;4.968;2023-06-14T00:04:55;3.58;;;3.20;;
9860;SDS011;4969;52.304;4.968;2023-06-14T00:07:33;8.80;;;3.38;;
9860;SDS011;4969;52.304;4.968;2023-06-14T00:10:02;4.93;;;3.00;;
9860;SDS011;4969;52.304;4.968;2023-06-14T00:12:29;4.20;;;3.17;;
9860;SDS011;4969;52.304;4.968;2023-06-14T00:14:56;3.13;;;2.83;;
9860;SDS011;4969;52.304;4.968;2023-06-14T00:17:22;6.45;;;3.80;;
9860;SDS011;4969;52.304;4.968;2023-06-14T00:19:49;5.05;;;3.05;;
9860;SDS011;4969;52.304;4.968;2023-06-14T00:22:16;4.03;;;3.00;;
9860;SDS011;4969;52.304;4.968;2023-06-14T00:24:43;3.60;;;3.30;;
9860;SDS011;4969;52.304;4.968;2023-06-14T00:27:11;3.95;;;2.90;;
9860;SDS011;4969;52.304;4.968;2023-06-14T00:29:37;4.10;;;3.40;;
9860;SDS011;4969;52.304;4.968;2023-06-14T00:32:04;3.83;;;3.00;;
9860;SDS011;4969;52.304;4.968;2023-06-14T00:34:31;5.03;;;3.28;;
9860;SDS011;4969;52.304;4.968;2023-06-14T00:36:58;4.57;;;3.28;;
9860;SDS011;4969;52.304;4.968;2023-06-14T00:39:25;4.40;;;2.75;;
9860;SDS011;4969;52.304;4.968;2023-06-14T00:41:51;5.72;;;3.13;;
9860;SDS011;4969;52.304;4.968;2023-06-14T00:44:20;5.72;;;2.95;;
9860;SDS011;4969;52.304;4.968;2023-06-14T00:46:46;3.60;;;2.85;;
9860;SDS011;4969;52.304;4.968;2023-06-14T00:49:13;4.90;;;2.90;;
9860;SDS011;4969;52.304;4.968;2023-06-14T00:51:41;6.00;;;3.10;;
9860;SDS011;4969;52.304;4.968;2023-06-14T00:54:08;4.50;;;3.20;;
9860;SDS011;4969;52.304;4.968;2023-06-14T00:56:36;4.85;;;3.28;;
9860;SDS011;4969;52.304;4.968;2023-06-14T00:59:03;5.60;;;3.40;;
9860;SDS011;4969;52.304;4.968;2023-06-14T01:01:31;6.75;;;3.05;;
9860;SDS011;4969;52.304;4.968;2023-06-14T01:03:58;4.03;;;2.97;;
9860;SDS011;4969;52.304;4.968;2023-06-14T01:06:28;3.83;;;2.92;;
9860;SDS011;4969;52.304;4.968;2023-06-14T01:09:02;4.90;;;2.97;;
9860;SDS011;4969;52.304;4.968;2023-06-14T01:11:37;6.07;;;2.90;;
9860;SDS011;4969;52.304;4.968;2023-06-14T01:14:09;5.68;;;2.90;;
9860;SDS011;4969;52.304;4.968;2023-06-14T01:16:38;3.35;;;2.80;;
9860;SDS011;4969;52.304;4.968;2023-06-14T01:19:06;3.28;;;3.05;;
9860;SDS011;4969;52.304;4.968;2023-06-14T01:21:38;6.30;;;2.97;;
9860;SDS011;4969;52.304;4.968;2023-06-14T01:24:08;3.95;;;2.90;;
9860;SDS011;4969;52.304;4.968;2023-06-14T01:26:36;5.93;;;2.70;;
9860;SDS011;4969;52.304;4.968;2023-06-14T01:29:04;3.28;;;2.92;;
9860;SDS011;4969;52.304;4.968;2023-06-14T01:31:32;3.67;;;2.95;;
9860;SDS011;4969;52.304;4.968;2023-06-14T01:34:06;5.22;;;2.97;;
9860;SDS011;4969;52.304;4.968;2023-06-14T01:36:33;3.35;;;2.90;;
9860;SDS011;4969;52.304;4.968;2023-06-14T01:39:02;3.38;;;2.70;;
9860;SDS011;4969;52.304;4.968;2023-06-14T01:41:31;4.38;;;3.15;;
9860;SDS011;4969;52.304;4.968;2023-06-14T01:43:59;6.28;;;3.38;;
9860;SDS011;4969;52.304;4.968;2023-06-14T01:46:27;4.40;;;2.95;;
9860;SDS011;4969;52.304;4.968;2023-06-14T01:48:54;5.88;;;2.72;;
9860;SDS011;4969;52.304;4.968;2023-06-14T01:51:21;5.50;;;2.88;;
9860;SDS011;4969;52.304;4.968;2023-06-14T01:53:47;7.35;;;3.00;;
9860;SDS011;4969;52.304;4.968;2023-06-14T01:56:14;4.78;;;3.00;;
9860;SDS011;4969;52.304;4.968;2023-06-14T01:58:42;4.60;;;2.83;;
9860;SDS011;4969;52.304;4.968;2023-06-14T02:01:09;7.28;;;3.00;;
9860;SDS011;4969;52.304;4.968;2023-06-14T02:03:36;5.53;;;2.97;;
9860;SDS011;4969;52.304;4.968;2023-06-14T02:06:03;4.82;;;2.88;;
9860;SDS011;4969;52.304;4.968;2023-06-14T02:08:30;9.68;;;2.90;;
9860;SDS011;4969;52.304;4.968;2023-06-14T02:10:57;5.07;;;2.70;;
9860;SDS011;4969;52.304;4.968;2023-06-14T02:13:23;5.20;;;2.97;;
9860;SDS011;4969;52.304;4.968;2023-06-14T02:15:51;6.93;;;3.20;;
9860;SDS011;4969;52.304;4.968;2023-06-14T02:18:19;4.53;;;3.03;;
9860;SDS011;4969;52.304;4.968;2023-06-14T02:20:46;6.30;;;3.05;;
9860;SDS011;4969;52.304;4.968;2023-06-14T02:23:13;9.15;;;3.08;;
9860;SDS011;4969;52.304;4.968;2023-06-14T02:25:39;6.55;;;3.30;;
9860;SDS011;4969;52.304;4.968;2023-06-14T02:28:06;4.68;;;3.10;;
9860;SDS011;4969;52.304;4.968;2023-06-14T02:30:33;5.70;;;3.08;;
9860;SDS011;4969;52.304;4.968;2023-06-14T02:33:01;3.63;;;2.97;;
9860;SDS011;4969;52.304;4.968;2023-06-14T02:35:28;3.78;;;2.90;;
9860;SDS011;4969;52.304;4.968;2023-06-14T02:37:55;9.85;;;2.80;;
9860;SDS011;4969;52.304;4.968;2023-06-14T02:40:22;5.68;;;3.20;;
9860;SDS011;4969;52.304;4.968;2023-06-14T02:42:50;4.72;;;3.10;;
9860;SDS011;4969;52.304;4.968;2023-06-14T02:45:17;4.50;;;2.95;;
9860;SDS011;4969;52.304;4.968;2023-06-14T02:47:43;6.07;;;3.08;;
9860;SDS011;4969;52.304;4.968;2023-06-14T02:50:12;8.98;;;3.05;;
9860;SDS011;4969;52.304;4.968;2023-06-14T02:52:38;5.10;;;2.63;;
9860;SDS011;4969;52.304;4.968;2023-06-14T02:55:06;7.75;;;2.80;;
9860;SDS011;4969;52.304;4.968;2023-06-14T02:57:34;3.33;;;2.70;;
9860;SDS011;4969;52.304;4.968;2023-06-14T03:00:01;4.65;;;2.90;;
9860;SDS011;4969;52.304;4.968;2023-06-14T03:02:28;5.28;;;2.80;;
9860;SDS011;4969;52.304;4.968;2023-06-14T03:04:54;7.30;;;2.83;;
9860;SDS011;4969;52.304;4.968;2023-06-14T03:07:27;5.28;;;2.70;;
9860;SDS011;4969;52.304;4.968;2023-06-14T03:09:54;3.50;;;2.88;;
9860;SDS011;4969;52.304;4.968;2023-06-14T03:12:21;7.15;;;2.90;;
9860;SDS011;4969;52.304;4.968;2023-06-14T03:14:48;5.15;;;2.60;;
9860;SDS011;4969;52.304;4.968;2023-06-14T03:17:15;6.47;;;3.13;;
9860;SDS011;4969;52.304;4.968;2023-06-14T03:19:44;6.25;;;3.20;;
9860;SDS011;4969;52.304;4.968;2023-06-14T03:22:11;4.68;;;2.90;;
9860;SDS011;4969;52.304;4.968;2023-06-14T03:24:39;3.67;;;2.92;;
9860;SDS011;4969;52.304;4.968;2023-06-14T03:27:06;5.18;;;2.78;;
9860;SDS011;4969;52.304;4.968;2023-06-14T03:29:35;6.80;;;3.13;;
9860;SDS011;4969;52.304;4.968;2023-06-14T03:32:02;4.05;;;3.00;;
9860;SDS011;4969;52.304;4.968;2023-06-14T03:34:29;3.47;;;2.67;;
9860;SDS011;4969;52.304;4.968;2023-06-14T03:36:56;5.63;;;2.88;;
9860;SDS011;4969;52.304;4.968;2023-06-14T03:39:23;4.28;;;2.60;;
9860;SDS011;4969;52.304;4.968;2023-06-14T03:41:51;5.40;;;2.65;;
9860;SDS011;4969;52.304;4.968;2023-06-14T03:44:17;3.10;;;2.80;;
9860;SDS011;4969;52.304;4.968;2023-06-14T03:46:45;5.90;;;2.60;;
9860;SDS011;4969;52.304;4.968;2023-06-14T03:49:11;6.43;;;3.05;;
9860;SDS011;4969;52.304;4.968;2023-06-14T03:51:38;9.75;;;2.83;;
9860;SDS011;4969;52.304;4.968;2023-06-14T03:54:05;6.65;;;2.90;;
9860;SDS011;4969;52.304;4.968;2023-06-14T03:56:32;4.65;;;2.72;;
9860;SDS011;4969;52.304;4.968;2023-06-14T03:59:00;6.68;;;2.85;;
9860;SDS011;4969;52.304;4.968;2023-06-14T04:01:27;6.15;;;2.75;;
9860;SDS011;4969;52.304;4.968;2023-06-14T04:03:55;4.13;;;2.63;;
9860;SDS011;4969;52.304;4.968;2023-06-14T04:06:22;3.03;;;2.65;;
9860;SDS011;4969;52.304;4.968;2023-06-14T04:08:56;7.63;;;2.80;;
9860;SDS011;4969;52.304;4.968;2023-06-14T04:11:26;7.78;;;2.75;;
9860;SDS011;4969;52.304;4.968;2023-06-14T04:13:52;5.57;;;2.92;;
9860;SDS011;4969;52.304;4.968;2023-06-14T04:16:22;6.80;;;2.90;;
9860;SDS011;4969;52.304;4.968;2023-06-14T04:18:49;4.38;;;2.80;;
9860;SDS011;4969;52.304;4.968;2023-06-14T04:21:17;3.88;;;2.58;;
9860;SDS011;4969;52.304;4.968;2023-06-14T04:23:44;4.32;;;2.42;;
9860;SDS011;4969;52.304;4.968;2023-06-14T04:26:10;4.47;;;2.92;;
9860;SDS011;4969;52.304;4.968;2023-06-14T04:28:37;7.15;;;2.80;;
9860;SDS011;4969;52.304;4.968;2023-06-14T04:31:05;3.70;;;2.75;;
9860;SDS011;4969;52.304;4.968;2023-06-14T04:33:34;3.10;;;2.80;;
9860;SDS011;4969;52.304;4.968;2023-06-14T04:36:09;6.47;;;2.70;;
9860;SDS011;4969;52.304;4.968;2023-06-14T04:38:36;3.92;;;2.90;;
9860;SDS011;4969;52.304;4.968;2023-06-14T04:41:03;6.85;;;3.05;;
9860;SDS011;4969;52.304;4.968;2023-06-14T04:43:30;4.97;;;2.78;;
9860;SDS011;4969;52.304;4.968;2023-06-14T04:46:03;3.00;;;2.78;;
9860;SDS011;4969;52.304;4.968;2023-06-14T04:48:31;5.72;;;3.05;;
9860;SDS011;4969;52.304;4.968;2023-06-14T04:50:59;3.85;;;2.75;;
9860;SDS011;4969;52.304;4.968;2023-06-14T04:53:25;9.18;;;3.05;;
9860;SDS011;4969;52.304;4.968;2023-06-14T04:55:54;6.05;;;3.00;;
9860;SDS011;4969;52.304;4.968;2023-06-14T04:58:21;3.78;;;2.70;;
9860;SDS011;4969;52.304;4.968;2023-06-14T05:00:47;3.25;;;2.97;;
9860;SDS011;4969;52.304;4.968;2023-06-14T05:03:14;5.97;;;2.72;;
9860;SDS011;4969;52.304;4.968;2023-06-14T05:05:41;2.97;;;2.70;;
9860;SDS011;4969;52.304;4.968;2023-06-14T05:08:09;4.78;;;2.78;;
9860;SDS011;4969;52.304;4.968;2023-06-14T05:10:35;3.90;;;2.97;;
9860;SDS011;4969;52.304;4.968;2023-06-14T05:13:02;5.53;;;2.83;;
9860;SDS011;4969;52.304;4.968;2023-06-14T05:15:29;5.68;;;2.80;;
9860;SDS011;4969;52.304;4.968;2023-06-14T05:17:55;4.03;;;3.00;;
9860;SDS011;4969;52.304;4.968;2023-06-14T05:20:22;4.05;;;2.80;;
9860;SDS011;4969;52.304;4.968;2023-06-14T05:22:49;6.30;;;2.90;;
9860;SDS011;4969;52.304;4.968;2023-06-14T05:25:19;3.65;;;2.88;;
9860;SDS011;4969;52.304;4.968;2023-06-14T05:27:46;4.88;;;3.05;;
9860;SDS011;4969;52.304;4.968;2023-06-14T05:30:13;5.65;;;2.70;;
9860;SDS011;4969;52.304;4.968;2023-06-14T05:32:40;5.05;;;3.20;;
9860;SDS011;4969;52.304;4.968;2023-06-14T05:35:07;7.13;;;2.90;;
9860;SDS011;4969;52.304;4.968;2023-06-14T05:37:35;9.77;;;3.17;;
9860;SDS011;4969;52.304;4.968;2023-06-14T05:40:02;4.65;;;2.85;;
9860;SDS011;4969;52.304;4.968;2023-06-14T05:42:32;4.28;;;3.05;;
9860;SDS011;4969;52.304;4.968;2023-06-14T05:44:59;3.95;;;2.97;;
9860;SDS011;4969;52.304;4.968;2023-06-14T05:47:26;6.82;;;3.05;;
9860;SDS011;4969;52.304;4.968;2023-06-14T05:49:52;8.25;;;3.45;;
9860;SDS011;4969;52.304;4.968;2023-06-14T05:52:21;5.93;;;3.05;;
9860;SDS011;4969;52.304;4.968;2023-06-14T05:54:48;5.72;;;2.88;;
9860;SDS011;4969;52.304;4.968;2023-06-14T05:57:15;6.13;;;2.85;;
9860;SDS011;4969;52.304;4.968;2023-06-14T05:59:43;13.48;;;3.25;;
9860;SDS011;4969;52.304;4.968;2023-06-14T06:02:10;6.45;;;3.08;;
9860;SDS011;4969;52.304;4.968;2023-06-14T06:04:36;3.67;;;3.33;;
9860;SDS011;4969;52.304;4.968;2023-06-14T06:07:03;4.03;;;3.10;;
9860;SDS011;4969;52.304;4.968;2023-06-14T06:09:30;5.22;;;3.05;;
9860;SDS011;4969;52.304;4.968;2023-06-14T06:11:57;5.30;;;3.25;;
9860;SDS011;4969;52.304;4.968;2023-06-14T06:14:23;4.40;;;2.85;;
9860;SDS011;4969;52.304;4.968;2023-06-14T06:16:51;6.72;;;3.20;;
9860;SDS011;4969;52.304;4.968;2023-06-14T06:19:18;5.32;;;2.90;;
9860;SDS011;4969;52.304;4.968;2023-06-14T06:21:45;5.18;;;3.10;;
9860;SDS011;4969;52.304;4.968;2023-06-14T06:24:11;10.93;;;4.43;;
9860;SDS011;4969;52.304;4.968;2023-06-14T06:26:38;3.78;;;2.80;;
9860;SDS011;4969;52.304;4.968;2023-06-14T06:29:05;9.55;;;3.33;;
9860;SDS011;4969;52.304;4.968;2023-06-14T06:31:31;10.20;;;3.28;;
9860;SDS011;4969;52.304;4.968;2023-06-14T06:33:59;7.18;;;3.28;;
9860;SDS011;4969;52.304;4.968;2023-06-14T06:36:26;4.80;;;3.22;;
9860;SDS011;4969;52.304;4.968;2023-06-14T06:38:52;5.47;;;2.92;;
9860;SDS011;4969;52.304;4.968;2023-06-14T06:41:19;4.30;;;3.22;;
9860;SDS011;4969;52.304;4.968;2023-06-14T06:43:45;6.10;;;3.00;;
9860;SDS011;4969;52.304;4.968;2023-06-14T06:46:12;5.50;;;3.20;;
9860;SDS011;4969;52.304;4.968;2023-06-14T06:48:39;4.47;;;3.25;;
9860;SDS011;4969;52.304;4.968;2023-06-14T06:51:07;7.95;;;3.45;;
9860;SDS011;4969;52.304;4.968;2023-06-14T06:53:33;4.40;;;3.10;;
9860;SDS011;4969;52.304;4.968;2023-06-14T06:56:00;3.40;;;3.10;;
9860;SDS011;4969;52.304;4.968;2023-06-14T06:58:26;5.43;;;3.10;;
9860;SDS011;4969;52.304;4.968;2023-06-14T07:00:53;7.05;;;3.22;;
9860;SDS011;4969;52.304;4.968;2023-06-14T07:03:20;9.35;;;3.10;;
9860;SDS011;4969;52.304;4.968;2023-06-14T07:05:47;7.28;;;3.22;;
9860;SDS011;4969;52.304;4.968;2023-06-14T07:08:14;5.95;;;2.88;;
9860;SDS011;4969;52.304;4.968;2023-06-14T07:10:41;4.65;;;3.40;;
9860;SDS011;4969;52.304;4.968;2023-06-14T07:13:08;6.88;;;3.47;;
9860;SDS011;4969;52.304;4.968;2023-06-14T07:15:34;4.90;;;2.88;;
9860;SDS011;4969;52.304;4.968;2023-06-14T07:18:01;9.23;;;3.30;;
9860;SDS011;4969;52.304;4.968;2023-06-14T07:20:27;4.85;;;3.45;;
9860;SDS011;4969;52.304;4.968;2023-06-14T07:22:54;5.68;;;3.20;;
9860;SDS011;4969;52.304;4.968;2023-06-14T07:25:22;3.63;;;3.10;;
9860;SDS011;4969;52.304;4.968;2023-06-14T07:27:49;7.05;;;3.08;;
9860;SDS011;4969;52.304;4.968;2023-06-14T07:30:15;3.13;;;2.83;;
9860;SDS011;4969;52.304;4.968;2023-06-14T07:32:42;4.40;;;3.20;;
9860;SDS011;4969;52.304;4.968;2023-06-14T07:35:08;3.75;;;2.80;;
9860;SDS011;4969;52.304;4.968;2023-06-14T07:37:35;3.22;;;3.00;;
9860;SDS011;4969;52.304;4.968;2023-06-14T07:40:02;6.20;;;2.95;;
9860;SDS011;4969;52.304;4.968;2023-06-14T07:42:33;3.50;;;3.22;;
9860;SDS011;4969;52.304;4.968;2023-06-14T07:45:01;3.17;;;2.97;;
9860;SDS011;4969;52.304;4.968;2023-06-14T07:47:27;7.47;;;3.17;;
9860;SDS011;4969;52.304;4.968;2023-06-14T07:49:54;4.28;;;3.03;;
9860;SDS011;4969;52.304;4.968;2023-06-14T07:52:21;7.60;;;2.92;;
9860;SDS011;4969;52.304;4.968;2023-06-14T07:54:47;7.30;;;3.00;;
9860;SDS011;4969;52.304;4.968;2023-06-14T07:57:14;4.10;;;3.20;;
9860;SDS011;4969;52.304;4.968;2023-06-14T07:59:42;8.13;;;2.80;;
9860;SDS011;4969;52.304;4.968;2023-06-14T08:02:08;4.93;;;3.03;;
9860;SDS011;4969;52.304;4.968;2023-06-14T08:04:35;7.72;;;3.13;;
9860;SDS011;4969;52.304;4.968;2023-06-14T08:07:02;4.47;;;3.08;;
9860;SDS011;4969;52.304;4.968;2023-06-14T08:09:29;4.78;;;3.10;;
9860;SDS011;4969;52.304;4.968;2023-06-14T08:11:56;5.18;;;2.80;;
9860;SDS011;4969;52.304;4.968;2023-06-14T08:14:22;4.00;;;2.72;;
9860;SDS011;4969;52.304;4.968;2023-06-14T08:16:50;3.53;;;2.53;;
9860;SDS011;4969;52.304;4.968;2023-06-14T08:19:17;5.85;;;2.70;;
9860;SDS011;4969;52.304;4.968;2023-06-14T08:21:44;3.78;;;2.45;;
9860;SDS011;4969;52.304;4.968;2023-06-14T08:24:12;6.03;;;2.80;;
9860;SDS011;4969;52.304;4.968;2023-06-14T08:26:39;3.25;;;2.95;;
9860;SDS011;4969;52.304;4.968;2023-06-14T08:29:05;2.72;;;2.53;;
9860;SDS011;4969;52.304;4.968;2023-06-14T08:31:33;5.28;;;2.58;;
9860;SDS011;4969;52.304;4.968;2023-06-14T08:34:01;5.07;;;2.70;;
9860;SDS011;4969;52.304;4.968;2023-06-14T08:36:27;4.90;;;2.63;;
9860;SDS011;4969;52.304;4.968;2023-06-14T08:38:54;2.70;;;2.50;;
9860;SDS011;4969;52.304;4.968;2023-06-14T08:41:22;5.35;;;2.53;;
9860;SDS011;4969;52.304;4.968;2023-06-14T08:43:49;2.45;;;2.28;;
9860;SDS011;4969;52.304;4.968;2023-06-14T08:46:17;3.17;;;2.70;;
9860;SDS011;4969;52.304;4.968;2023-06-14T08:48:46;2.80;;;2.15;;
9860;SDS011;4969;52.304;4.968;2023-06-14T08:51:16;3.13;;;2.10;;
9860;SDS011;4969;52.304;4.968;2023-06-14T08:53:47;4.00;;;2.30;;
9860;SDS011;4969;52.304;4.968;2023-06-14T08:56:18;9.38;;;2.80;;
9860;SDS011;4969;52.304;4.968;2023-06-14T08:58:45;3.60;;;2.15;;
9860;SDS011;4969;52.304;4.968;2023-06-14T09:01:13;6.03;;;2.25;;
9860;SDS011;4969;52.304;4.968;2023-06-14T09:03:41;2.53;;;2.17;;
9860;SDS011;4969;52.304;4.968;2023-06-14T09:06:09;4.28;;;2.47;;
9860;SDS011;4969;52.304;4.968;2023-06-14T09:08:40;5.95;;;2.40;;
9860;SDS011;4969;52.304;4.968;2023-06-14T09:11:08;2.40;;;2.20;;
9860;SDS011;4969;52.304;4.968;2023-06-14T09:13:37;3.65;;;2.50;;
9860;SDS011;4969;52.304;4.968;2023-06-14T09:16:03;2.92;;;2.22;;
9860;SDS011;4969;52.304;4.968;2023-06-14T09:18:34;2.50;;;2.30;;
9860;SDS011;4969;52.304;4.968;2023-06-14T09:21:02;5.25;;;2.40;;
9860;SDS011;4969;52.304;4.968;2023-06-14T09:23:29;4.78;;;2.30;;
9860;SDS011;4969;52.304;4.968;2023-06-14T09:25:57;3.72;;;2.25;;
9860;SDS011;4969;52.304;4.968;2023-06-14T09:28:26;2.53;;;2.22;;
9860;SDS011;4969;52.304;4.968;2023-06-14T09:30:53;2.75;;;2.20;;
9860;SDS011;4969;52.304;4.968;2023-06-14T09:33:20;3.53;;;2.15;;
9860;SDS011;4969;52.304;4.968;2023-06-14T09:35:50;3.45;;;2.42;;
9860;SDS011;4969;52.304;4.968;2023-06-14T09:38:18;6.55;;;2.50;;
9860;SDS011;4969;52.304;4.968;2023-06-14T09:40:44;4.60;;;2.30;;
9860;SDS011;4969;52.304;4.968;2023-06-14T09:43:12;4.20;;;2.40;;
9860;SDS011;4969;52.304;4.968;2023-06-14T09:45:39;2.95;;;2.30;;
9860;SDS011;4969;52.304;4.968;2023-06-14T09:48:06;3.55;;;2.20;;
9860;SDS011;4969;52.304;4.968;2023-06-14T09:50:33;2.50;;;2.30;;
9860;SDS011;4969;52.304;4.968;2023-06-14T09:53:01;3.22;;;2.47;;
9860;SDS011;4969;52.304;4.968;2023-06-14T09:55:31;3.80;;;2.30;;
9860;SDS011;4969;52.304;4.968;2023-06-14T09:58:01;4.07;;;2.03;;
9860;SDS011;4969;52.304;4.968;2023-06-14T10:00:32;3.10;;;2.05;;
9860;SDS011;4969;52.304;4.968;2023-06-14T10:03:00;2.25;;;2.03;;
9860;SDS011;4969;52.304;4.968;2023-06-14T10:05:32;3.80;;;2.30;;
9860;SDS011;4969;52.304;4.968;2023-06-14T10:08:04;2.03;;;1.83;;
9860;SDS011;4969;52.304;4.968;2023-06-14T10:10:34;2.28;;;2.10;;
9860;SDS011;4969;52.304;4.968;2023-06-14T10:13:01;2.60;;;2.00;;
9860;SDS011;4969;52.304;4.968;2023-06-14T10:15:31;2.33;;;2.13;;
9860;SDS011;4969;52.304;4.968;2023-06-14T10:18:06;2.58;;;2.00;;
9860;SDS011;4969;52.304;4.968;2023-06-14T10:20:41;2.10;;;1.95;;
9860;SDS011;4969;52.304;4.968;2023-06-14T10:23:17;2.58;;;2.05;;
9860;SDS011;4969;52.304;4.968;2023-06-14T10:25:49;2.45;;;1.80;;
9860;SDS011;4969;52.304;4.968;2023-06-14T10:28:17;3.47;;;2.00;;
9860;SDS011;4969;52.304;4.968;2023-06-14T10:31:05;2.38;;;1.88;;
9860;SDS011;4969;52.304;4.968;2023-06-14T10:33:33;2.40;;;2.20;;
9860;SDS011;4969;52.304;4.968;2023-06-14T10:36:09;2.30;;;2.00;;
9860;SDS011;4969;52.304;4.968;2023-06-14T10:38:56;5.13;;;1.98;;
9860;SDS011;4969;52.304;4.968;2023-06-14T10:41:23;4.88;;;2.13;;
9860;SDS011;4969;52.304;4.968;2023-06-14T10:43:52;4.15;;;1.80;;
9860;SDS011;4969;52.304;4.968;2023-06-14T10:46:38;2.40;;;1.85;;
9860;SDS011;4969;52.304;4.968;2023-06-14T10:49:05;2.20;;;2.10;;
9860;SDS011;4969;52.304;4.968;2023-06-14T10:51:37;4.15;;;2.10;;
9860;SDS011;4969;52.304;4.968;2023-06-14T10:54:11;3.25;;;2.08;;
9860;SDS011;4969;52.304;4.968;2023-06-14T10:56:38;3.80;;;1.92;;
9860;SDS011;4969;52.304;4.968;2023-06-14T10:59:12;4.20;;;2.15;;
9860;SDS011;4969;52.304;4.968;2023-06-14T11:01:51;1.95;;;1.85;;
9860;SDS011;4969;52.304;4.968;2023-06-14T11:04:23;2.90;;;2.03;;
9860;SDS011;4969;52.304;4.968;2023-06-14T11:07:03;3.67;;;1.95;;
9860;SDS011;4969;52.304;4.968;2023-06-14T11:09:58;2.00;;;1.88;;
9860;SDS011;4969;52.304;4.968;2023-06-14T11:12:36;3.92;;;1.90;;
9860;SDS011;4969;52.304;4.968;2023-06-14T11:15:05;2.20;;;2.00;;
9860;SDS011;4969;52.304;4.968;2023-06-14T11:17:33;3.03;;;1.90;;
9860;SDS011;4969;52.304;4.968;2023-06-14T11:20:09;2.47;;;1.80;;
9860;SDS011;4969;52.304;4.968;2023-06-14T11:22:41;2.45;;;1.80;;
9860;SDS011;4969;52.304;4.968;2023-06-14T11:25:08;2.65;;;1.80;;
9860;SDS011;4969;52.304;4.968;2023-06-14T11:27:35;2.00;;;1.80;;
9860;SDS011;4969;52.304;4.968;2023-06-14T11:30:02;2.47;;;1.75;;
9860;SDS011;4969;52.304;4.968;2023-06-14T11:32:30;1.95;;;1.85;;
9860;SDS011;4969;52.304;4.968;2023-06-14T11:34:58;3.92;;;1.85;;
9860;SDS011;4969;52.304;4.968;2023-06-14T11:37:25;2.88;;;2.00;;
9860;SDS011;4969;52.304;4.968;2023-06-14T11:39:55;2.47;;;1.90;;
9860;SDS011;4969;52.304;4.968;2023-06-14T11:42:22;2.13;;;2.00;;
9860;SDS011;4969;52.304;4.968;2023-06-14T11:44:49;2.33;;;1.77;;
9860;SDS011;4969;52.304;4.968;2023-06-14T11:47:16;2.40;;;2.13;;
9860;SDS011;4969;52.304;4.968;2023-06-14T11:49:42;2.40;;;1.90;;
9860;SDS011;4969;52.304;4.968;2023-06-14T11:52:10;2.30;;;1.90;;
9860;SDS011;4969;52.304;4.968;2023-06-14T11:54:37;2.00;;;1.90;;
9860;SDS011;4969;52.304;4.968;2023-06-14T11:57:06;2.10;;;2.00;;
9860;SDS011;4969;52.304;4.968;2023-06-14T11:59:37;2.00;;;1.90;;
9860;SDS011;4969;52.304;4.968;2023-06-14T12:02:04;2.67;;;2.00;;
9860;SDS011;4969;52.304;4.968;2023-06-14T12:04:31;4.80;;;1.80;;
9860;SDS011;4969;52.304;4.968;2023-06-14T12:07:08;2.15;;;1.70;;
9860;SDS011;4969;52.304;4.968;2023-06-14T12:09:41;3.22;;;2.10;;
9860;SDS011;4969;52.304;4.968;2023-06-14T12:12:09;2.03;;;1.80;;
9860;SDS011;4969;52.304;4.968;2023-06-14T12:14:36;4.15;;;1.98;;
9860;SDS011;4969;52.304;4.968;2023-06-14T12:17:06;2.78;;;1.60;;
9860;SDS011;4969;52.304;4.968;2023-06-14T12:19:40;3.90;;;1.90;;
9860;SDS011;4969;52.304;4.968;2023-06-14T12:22:09;2.83;;;1.88;;
9860;SDS011;4969;52.304;4.968;2023-06-14T12:24:36;3.38;;;1.75;;
9860;SDS011;4969;52.304;4.968;2023-06-14T12:27:04;3.47;;;1.85;;
9860;SDS011;4969;52.304;4.968;2023-06-14T12:29:32;2.78;;;1.95;;
9860;SDS011;4969;52.304;4.968;2023-06-14T12:31:58;3.97;;;1.67;;
9860;SDS011;4969;52.304;4.968;2023-06-14T12:34:25;2.63;;;1.83;;
9860;SDS011;4969;52.304;4.968;2023-06-14T12:36:52;3.28;;;1.98;;
9860;SDS011;4969;52.304;4.968;2023-06-14T12:39:19;6.65;;;1.80;;
9860;SDS011;4969;52.304;4.968;2023-06-14T12:41:47;1.83;;;1.67;;
9860;SDS011;4969;52.304;4.968;2023-06-14T12:44:15;4.03;;;1.80;;
9860;SDS011;4969;52.304;4.968;2023-06-14T12:46:42;2.13;;;1.90;;
9860;SDS011;4969;52.304;4.968;2023-06-14T12:49:09;3.35;;;1.75;;
9860;SDS011;4969;52.304;4.968;2023-06-14T12:51:37;3.65;;;2.10;;
9860;SDS011;4969;52.304;4.968;2023-06-14T12:54:04;2.55;;;2.20;;
9860;SDS011;4969;52.304;4.968;2023-06-14T12:56:30;2.00;;;1.70;;
9860;SDS011;4969;52.304;4.968;2023-06-14T12:58:57;2.38;;;1.88;;
9860;SDS011;4969;52.304;4.968;2023-06-14T13:01:25;2.65;;;1.90;;
9860;SDS011;4969;52.304;4.968;2023-06-14T13:03:52;2.15;;;1.75;;
9860;SDS011;4969;52.304;4.968;2023-06-14T13:06:20;2.00;;;1.80;;
9860;SDS011;4969;52.304;4.968;2023-06-14T13:08:47;5.45;;;2.03;;
9860;SDS011;4969;52.304;4.968;2023-06-14T13:11:13;3.28;;;2.00;;
9860;SDS011;4969;52.304;4.968;2023-06-14T13:13:41;2.88;;;2.00;;
9860;SDS011;4969;52.304;4.968;2023-06-14T13:16:07;4.10;;;2.00;;
9860;SDS011;4969;52.304;4.968;2023-06-14T13:18:37;5.22;;;1.95;;
9860;SDS011;4969;52.304;4.968;2023-06-14T13:21:03;3.63;;;2.00;;
9860;SDS011;4969;52.304;4.968;2023-06-14T13:23:30;2.42;;;1.70;;
9860;SDS011;4969;52.304;4.968;2023-06-14T13:25:57;5.55;;;1.92;;
9860;SDS011;4969;52.304;4.968;2023-06-14T13:28:23;2.45;;;1.65;;
9860;SDS011;4969;52.304;4.968;2023-06-14T13:30:50;2.80;;;1.80;;
9860;SDS011;4969;52.304;4.968;2023-06-14T13:33:16;3.00;;;1.90;;
9860;SDS011;4969;52.304;4.968;2023-06-14T13:35:44;3.50;;;1.90;;
9860;SDS011;4969;52.304;4.968;2023-06-14T13:38:11;2.33;;;1.90;;
9860;SDS011;4969;52.304;4.968;2023-06-14T13:40:39;3.88;;;1.83;;
9860;SDS011;4969;52.304;4.968;2023-06-14T13:43:06;1.77;;;1.67;;
9860;SDS011;4969;52.304;4.968;2023-06-14T13:45:33;2.40;;;1.70;;
9860;SDS011;4969;52.304;4.968;2023-06-14T13:48:00;2.70;;;2.00;;
9860;SDS011;4969;52.304;4.968;2023-06-14T13:50:26;2.17;;;1.95;;
9860;SDS011;4969;52.304;4.968;2023-06-14T13:52:55;2.00;;;1.75;;
9860;SDS011;4969;52.304;4.968;2023-06-14T13:55:21;2.35;;;1.90;;
9860;SDS011;4969;52.304;4.968;2023-06-14T13:57:48;3.50;;;1.60;;
9860;SDS011;4969;52.304;4.968;2023-06-14T14:00:15;3.05;;;1.65;;
9860;SDS011;4969;52.304;4.968;2023-06-14T14:02:42;4.00;;;1.60;;
9860;SDS011;4969;52.304;4.968;2023-06-14T14:05:09;3.47;;;1.98;;
9860;SDS011;4969;52.304;4.968;2023-06-14T14:07:36;1.77;;;1.67;;
9860;SDS011;4969;52.304;4.968;2023-06-14T14:10:05;2.53;;;1.75;;
9860;SDS011;4969;52.304;4.968;2023-06-14T14:12:32;4.95;;;2.10;;
9860;SDS011;4969;52.304;4.968;2023-06-14T14:14:59;2.83;;;1.73;;
9860;SDS011;4969;52.304;4.968;2023-06-14T14:17:26;4.05;;;2.13;;
9860;SDS011;4969;52.304;4.968;2023-06-14T14:19:52;1.92;;;1.80;;
9860;SDS011;4969;52.304;4.968;2023-06-14T14:22:19;1.95;;;1.70;;
9860;SDS011;4969;52.304;4.968;2023-06-14T14:24:45;2.20;;;2.00;;
9860;SDS011;4969;52.304;4.968;2023-06-14T14:27:13;3.30;;;1.75;;
9860;SDS011;4969;52.304;4.968;2023-06-14T14:29:40;3.13;;;1.70;;
9860;SDS011;4969;52.304;4.968;2023-06-14T14:32:07;4.57;;;1.88;;
9860;SDS011;4969;52.304;4.968;2023-06-14T14:34:38;3.00;;;1.80;;
9860;SDS011;4969;52.304;4.968;2023-06-14T14:37:05;4.22;;;2.00;;
9860;SDS011;4969;52.304;4.968;2023-06-14T14:39:32;4.03;;;1.90;;
9860;SDS011;4969;52.304;4.968;2023-06-14T14:41:58;1.73;;;1.63;;
9860;SDS011;4969;52.304;4.968;2023-06-14T14:44:26;3.40;;;1.92;;
9860;SDS011;4969;52.304;4.968;2023-06-14T14:46:53;4.13;;;2.13;;
9860;SDS011;4969;52.304;4.968;2023-06-14T14:49:19;4.55;;;1.90;;
9860;SDS011;4969;52.304;4.968;2023-06-14T14:51:46;2.30;;;1.90;;
9860;SDS011;4969;52.304;4.968;2023-06-14T14:54:13;1.95;;;1.70;;
9860;SDS011;4969;52.304;4.968;2023-06-14T14:56:39;3.33;;;1.80;;
9860;SDS011;4969;52.304;4.968;2023-06-14T14:59:06;6.00;;;1.90;;
9860;SDS011;4969;52.304;4.968;2023-06-14T15:01:34;1.70;;;1.60;;
9860;SDS011;4969;52.304;4.968;2023-06-14T15:04:00;2.95;;;1.70;;
9860;SDS011;4969;52.304;4.968;2023-06-14T15:06:27;3.35;;;1.70;;
9860;SDS011;4969;52.304;4.968;2023-06-14T15:08:54;4.43;;;2.15;;
9860;SDS011;4969;52.304;4.968;2023-06-14T15:11:20;2.00;;;1.80;;
9860;SDS011;4969;52.304;4.968;2023-06-14T15:13:47;2.35;;;2.03;;
9860;SDS011;4969;52.304;4.968;2023-06-14T15:16:13;2.13;;;1.70;;
9860;SDS011;4969;52.304;4.968;2023-06-14T15:18:42;5.10;;;1.83;;